• Join FlightAware (Why Join?)
  • Login
  • US Flag 
06:49AM EDT


 

Airport Tracker/Info


-or-


 

Live Flight TrackerFlight Track Log ✈ CTL15 ✈ 01-May-2013 ✈ KMGY - KBKL

Flight Track Log - Related Links

Times and Time Zones

All times are in EDT time to prevent confusion due to time zone crossing. See the CTL15 flight status page for this flight to view local times or setup timezone preferences in your user account.

Time Position Orientation Groundspeed Altitude Reporting Facility
EDT Latitude Longitude Course Direction KTS MPH feet Rate Location/Type
08:46PM 39.6422 -84.1722 44° Northeast 119 137 3,200  Level Indianapolis Center
08:48PM 39.6794 -84.1258 44° Northeast 120 138 4,700 900 Climbing Indianapolis Center
08:49PM 39.7006 -84.0958 48° Northeast 120 138 5,500 780 Climbing Indianapolis Center
08:49PM 39.7258 -84.0694 39° Northeast 127 146 6,200 540 Climbing Indianapolis Center
08:50PM 39.7294 -84.0614 60° Northeast 122 140 6,200 480 Level Indianapolis Center
08:51PM 39.7539 -84.0297 45° Northeast 131 151 6,800 240 Climbing Indianapolis Center
08:52PM 39.7842 -83.9922 44° Northeast 133 153 6,800 60 Level Indianapolis Center
08:53PM 39.8144 -83.9533 45° Northeast 156 180 7,000 240 Climbing Indianapolis Center
08:53PM 39.8164 -83.9514 38° Northeast 146 168 7,100 60 Climbing Indianapolis Center
08:54PM 39.8444 -83.9136 46° Northeast 158 182 7,100  Level Indianapolis Center
08:54PM 39.8536 -83.9042 38° Northeast 155 178 7,100  Level Indianapolis Center
08:54PM 39.8744 -83.8794 42° Northeast 153 176 7,100  Level Indianapolis Center
08:55PM 39.8858 -83.8664 41° Northeast 155 178 7,100  Level Indianapolis Center
08:55PM 39.9044 -83.8425 45° Northeast 156 180 7,100  Level Indianapolis Center
08:56PM 39.9175 -83.8278 41° Northeast 154 177 7,100  Level Indianapolis Center
08:57PM 39.9414 -83.7956 46° Northeast 157 181 7,100  Level Indianapolis Center
08:57PM 39.9494 -83.7875 37° Northeast 156 180 7,100  Level Indianapolis Center
08:58PM 39.9739 -83.7561 45° Northeast 162 186 7,100  Level Indianapolis Center
08:58PM 39.9831 -83.7464 39° Northeast 160 184 7,100  Level Indianapolis Center
08:59PM 40.0081 -83.7194 40° Northeast 159 183 7,100  Level Indianapolis Center
08:59PM 40.0164 -83.7075 48° Northeast 160 184 7,100  Level Indianapolis Center
09:00PM 40.0358 -83.6822 45° Northeast 159 183 7,100  Level Indianapolis Center
09:00PM 40.0494 -83.6678 39° Northeast 159 183 7,100  Level Indianapolis Center
09:01PM 40.0681 -83.6425 46° Northeast 159 183 7,100 -120 Level Indianapolis Center
09:01PM 40.0814 -83.6258 44° Northeast 160 184 7,000 -120 Descending Indianapolis Center
09:02PM 40.1050 -83.5953 45° Northeast 161 185 7,000  Level Indianapolis Center
09:02PM 40.1133 -83.5833 48° Northeast 161 185 7,000  Level Indianapolis Center
09:03PM 40.1356 -83.5528 46° Northeast 161 185 7,000  Level Indianapolis Center
09:03PM 40.1442 -83.5406 47° Northeast 160 184 7,000  Level Indianapolis Center
09:04PM 40.1678 -83.5103 44° Northeast 160 184 7,000  Level Indianapolis Center
09:04PM 40.1761 -83.4989 46° Northeast 160 184 7,000 60 Level Indianapolis Center
09:05PM 40.2000 -83.4706 42° Northeast 163 188 7,100  Climbing Indianapolis Center
09:05PM 40.2097 -83.4603 39° Northeast 160 184 7,000  Descending Indianapolis Center
09:06PM 40.2342 -83.4339 39° Northeast 158 182 7,100 60 Climbing Indianapolis Center
09:06PM 40.2433 -83.4222 44° Northeast 158 182 7,100 -120 Level Indianapolis Center
09:07PM 40.2619 -83.3933 50° Northeast 157 181 7,000 -120 Descending Indianapolis Center
09:07PM 40.2736 -83.3800 41° Northeast 156 180 7,000  Level Indianapolis Center
09:08PM 40.3058 -83.3408 43° Northeast 157 181 7,000  Level Indianapolis Center
09:09PM 40.3378 -83.2992 45° Northeast 159 183 7,000  Level Indianapolis Center
09:10PM 40.3681 -83.2564 47° Northeast 159 183 7,000  Level Indianapolis Center
09:11PM 40.3967 -83.2144 48° Northeast 154 177 7,000  Level Indianapolis Center
09:12PM 40.4267 -83.1725 47° Northeast 156 180 7,000  Level Indianapolis Center
09:13PM 40.4606 -83.1336 41° Northeast 158 182 7,000  Level Indianapolis Center
09:14PM 40.4928 -83.0933 44° Northeast 158 182 7,000  Level Indianapolis Center
09:15PM 40.5256 -83.0511 44° Northeast 157 181 7,000 -60 Level Indianapolis Center
09:16PM 40.5556 -83.0075 48° Northeast 159 183 6,900  Descending Indianapolis Center
09:17PM 40.5856 -82.9642 48° Northeast 160 184 7,000 -60 Climbing Indianapolis Center
09:18PM 40.6169 -82.9219 46° Northeast 160 184 6,800  Descending Indianapolis Center
09:19PM 40.6517 -82.8711 48° Northeast 158 182 7,000 60 Climbing Indianapolis Center
09:20PM 40.6825 -82.8294 46° Northeast 157 181 7,000 60 Level Indianapolis Center
09:21PM 40.6914 -82.8206 37° Northeast 156 180 7,100 60 Climbing Cleveland Center
09:22PM 40.7214 -82.7747 49° Northeast 157 181 7,100  Level Cleveland Center
09:23PM 40.7556 -82.7375 40° Northeast 159 183 7,100  Level Cleveland Center
09:24PM 40.7897 -82.6867 48° Northeast 159 183 7,100  Level Cleveland Center
09:25PM 40.8219 -82.6464 43° Northeast 160 184 7,100  Level Cleveland Center
09:26PM 40.8497 -82.6061 48° Northeast 158 182 7,100  Level Cleveland Center
09:27PM 40.8797 -82.5603 49° Northeast 162 186 7,100  Level Cleveland Center
09:28PM 40.9117 -82.5203 43° Northeast 160 184 7,100  Level Cleveland Center
09:29PM 40.9436 -82.4772 46° Northeast 160 184 7,100  Level Cleveland Center
09:30PM 40.9756 -82.4367 44° Northeast 159 183 7,100  Level Cleveland Center
09:31PM 41.0056 -82.3936 47° Northeast 161 185 7,100  Level Cleveland Center
09:32PM 41.0372 -82.3558 42° Northeast 159 183 7,200  Climbing Cleveland Center
09:33PM 41.0772 -82.3267 29° Northeast 169 194 7,100 -60 Descending Cleveland Center
09:34PM 41.1342 -82.2978 21° North 167 192 7,100 -360 Level Cleveland Center
09:35PM 41.1803 -82.2769 19° North 179 206 6,400 -900 Descending Cleveland Center
09:36PM 41.2286 -82.2506 22° Northeast 195 224 5,400 -900 Descending Cleveland Center
09:37PM 41.2792 -82.2217 23° Northeast 195 224 4,600 -720 Descending Cleveland Center
09:38PM 41.3253 -82.1950 23° Northeast 186 214 4,000 -540 Descending Cleveland Center
09:39PM 41.3778 -82.1661 22° Northeast 173 199 3,500 -480 Descending Cleveland Center
09:40PM 41.4242 -82.1339 28° Northeast 181 208 3,100 -240 Descending Cleveland Center
09:41PM 41.4661 -82.1044 28° Northeast 163 188 3,100  Level Cleveland Center
09:42PM 41.4814 -82.0550 68° East 150 173 3,100 -60 Level Cleveland Center
09:43PM 41.4883 -81.9997 80° East 151 174 3,000 -300 Descending Cleveland Center
09:44PM 41.4975 -81.9417 78° East 161 185 2,500 -600 Descending Cleveland Center
09:45PM 41.5025 -81.8778 84° East 169 194 1,800 -600 Descending Cleveland Center
09:46PM 41.5031 -81.8225 89° East 161 185 1,400 -360 Descending Cleveland Center
09:47PM 41.5056 -81.7644 87° East 152 175 1,200 -300 Descending Cleveland Center
09:48PM 41.5083 -81.7172 85° East 124 143 900 -300 Descending Cleveland Center